East Maine, New York
Current Conditions -  °F | °C
As of 2:18 PM on Tuesday 21 Oct 2014 (Local Time) from KBGM Reporting Station
Overcast Overcast  
Wind Chill: 11°   Ceiling: 3400
Heat Index: 11°   Visibility: 10mi
Dew Point:   Wind: 0mph
Humidity: 80%   Direction: NA
Pressure: 29.85"   Gusts: NA
Location:  42.1768°N, 76.0035°W
Report Text: KBGM 211818Z 00000KT 10SM FEW015 SCT029 OVC034 11/08 A2985 RMK AO2 RAE10 P0000 T01110078
Loading
Personal Weather Stations






























Interactive Weather Map
Tropical Storm Tracking
New forecast layout! Learn more

10-Day Weather Forecast

Advertisements
Track Severe Weather on mobile